Time;durP1;ratioP1;P1;durP2;ratioP2;P2;SDS_P1;SDS_P2;PMS_P1;PMS_P2;Temp;Humidity;BMP_temperature;BMP_pressure;BME280_temperature;BME280_humidity;BME280_pressure;Samples;Min_cycle;Max_cycle;Signal;HPM_P1;HPM_P2
2023/10/01 00:01:36;;;;;;;5.60;3.30;;;;;;;-128.00;-1.00;-1.00;100538;319;1003150;-30
2023/10/01 00:04:06;;;;;;;7.00;2.40;;;;;;;-128.00;-1.00;-1.00;100666;319;1003375;-34
2023/10/01 00:06:34;;;;;;;16.40;3.30;;;;;;;-128.00;-1.00;-1.00;100776;319;1003292;-34
2023/10/01 00:09:01;;;;;;;5.80;2.30;;;;;;;-128.00;-1.00;-1.00;100810;319;1003130;-35
2023/10/01 00:11:27;;;;;;;6.80;2.50;;;;;;;-128.00;-1.00;-1.00;100620;319;1004595;-31
2023/10/01 00:13:53;;;;;;;8.30;2.50;;;;;;;-128.00;-1.00;-1.00;100697;319;1002584;-33
2023/10/01 00:16:19;;;;;;;6.30;3.40;;;;;;;-128.00;-1.00;-1.00;100751;319;1004515;-29
2023/10/01 00:18:47;;;;;;;5.00;2.60;;;;;;;-128.00;-1.00;-1.00;100560;321;1003790;-29
2023/10/01 00:21:13;;;;;;;12.60;4.40;;;;;;;-128.00;-1.00;-1.00;100743;319;1004052;-33
2023/10/01 00:23:40;;;;;;;5.60;2.30;;;;;;;-128.00;-1.00;-1.00;100687;319;1004197;-31
2023/10/01 00:26:06;;;;;;;12.50;2.80;;;;;;;-128.00;-1.00;-1.00;100749;319;1004723;-30
2023/10/01 00:28:32;;;;;;;8.00;3.50;;;;;;;-128.00;-1.00;-1.00;100714;319;1004157;-34
2023/10/01 00:30:57;;;;;;;6.00;3.70;;;;;;;-128.00;-1.00;-1.00;100589;319;1004611;-30
2023/10/01 00:33:23;;;;;;;4.00;2.70;;;;;;;-128.00;-1.00;-1.00;100578;319;1002904;-31
2023/10/01 00:35:48;;;;;;;6.60;2.80;;;;;;;-128.00;-1.00;-1.00;100694;319;1003000;-31
2023/10/01 01:17:31;;;;;;;8.80;4.00;;;;;;;-101.27;19.20;20048.62;20145;319;8076335;-36
2023/10/01 01:19:57;;;;;;;12.90;3.80;;;;;;;-128.00;-1.00;-1.00;19081;319;7504544;-34
2023/10/01 01:22:28;;;;;;;10.70;3.70;;;;;;;-128.00;-1.00;-1.00;19418;319;7506080;-36
2023/10/01 01:24:57;;;;;;;8.50;3.50;;;;;;;-128.00;-1.00;-1.00;19032;318;7506658;-30
2023/10/01 01:27:23;;;;;;;5.90;2.90;;;;;;;-128.00;-1.00;-1.00;19036;318;7504466;-30
2023/10/01 01:29:50;;;;;;;5.30;3.90;;;;;;;-128.00;-1.00;-1.00;19040;322;7506588;-33
2023/10/01 01:32:17;;;;;;;11.70;4.50;;;;;;;-128.00;-1.00;-1.00;19038;323;7504942;-30
2023/10/01 01:34:44;;;;;;;6.60;2.00;;;;;;;-128.00;-1.00;-1.00;19019;322;7506066;-29
2023/10/01 01:37:30;;;;;;;3.50;2.20;;;;;;;-128.00;-1.00;-1.00;19027;322;7505451;-34
2023/10/01 01:39:57;;;;;;;7.00;3.20;;;;;;;-128.00;-1.00;-1.00;19005;323;7505354;-30
2023/10/01 01:42:24;;;;;;;13.10;4.50;;;;;;;-128.00;-1.00;-1.00;18990;319;7506252;-35
2023/10/01 01:47:30;;;;;;;10.30;4.60;;;;;;;-128.00;-1.00;-1.00;19019;318;7505191;-35
2023/10/01 01:50:07;;;;;;;12.50;4.70;;;;;;;-128.00;-1.00;-1.00;19025;323;7504806;-30
2023/10/01 01:52:32;;;;;;;4.70;2.50;;;;;;;-128.00;-1.00;-1.00;19024;318;7504424;-30
2023/10/01 01:55:00;;;;;;;13.80;3.80;;;;;;;-128.00;-1.00;-1.00;19040;318;7504938;-31
2023/10/01 01:57:28;;;;;;;5.90;3.50;;;;;;;-128.00;-1.00;-1.00;19015;318;7507458;-30
2023/10/01 01:59:53;;;;;;;9.80;7.40;;;;;;;-128.00;-1.00;-1.00;19013;322;7506304;-34
2023/10/01 02:02:19;;;;;;;6.20;4.50;;;;;;;-128.00;-1.00;-1.00;19001;318;7505180;-30
2023/10/01 02:05:09;;;;;;;8.40;2.90;;;;;;;-128.00;-1.00;-1.00;19451;323;7505437;-31
2023/10/01 02:07:33;;;;;;;4.40;3.70;;;;;;;-128.00;-1.00;-1.00;19016;318;7505340;-31
2023/10/01 02:09:59;;;;;;;5.30;2.60;;;;;;;-128.00;-1.00;-1.00;19041;318;7505527;-30
2023/10/01 02:12:25;;;;;;;3.30;2.80;;;;;;;-128.00;-1.00;-1.00;19002;323;7505322;-33
2023/10/01 02:14:56;;;;;;;4.90;3.30;;;;;;;-128.00;-1.00;-1.00;19040;318;7505055;-30
2023/10/01 02:17:22;;;;;;;4.30;2.10;;;;;;;-128.00;-1.00;-1.00;19010;319;7505155;-34
2023/10/01 02:19:50;;;;;;;10.30;4.10;;;;;;;-128.00;-1.00;-1.00;19030;318;7506323;-31
2023/10/01 02:22:16;;;;;;;7.50;3.20;;;;;;;-128.00;-1.00;-1.00;19012;320;7505615;-30
2023/10/01 02:24:54;;;;;;;17.90;3.90;;;;;;;-128.00;-1.00;-1.00;18975;323;7504872;-35
2023/10/01 02:27:20;;;;;;;6.90;2.80;;;;;;;-128.00;-1.00;-1.00;19015;319;7505303;-32
2023/10/01 02:30:09;;;;;;;7.80;3.40;;;;;;;-128.00;-1.00;-1.00;19008;319;7506259;-35
2023/10/01 02:32:32;;;;;;;7.80;2.80;;;;;;;-128.00;-1.00;-1.00;19033;323;7504697;-31
2023/10/01 02:34:58;;;;;;;5.90;2.20;;;;;;;-128.00;-1.00;-1.00;19033;318;7505266;-35
2023/10/01 02:37:35;;;;;;;4.60;2.10;;;;;;;-128.00;-1.00;-1.00;19018;318;7504530;-31
2023/10/01 02:42:39;;;;;;;23.50;3.90;;;;;;;-128.00;-1.00;-1.00;19039;318;7504714;-32
2023/10/01 02:45:30;;;;;;;8.50;3.10;;;;;;;-128.00;-1.00;-1.00;19434;323;7505116;-35
2023/10/01 02:48:13;;;;;;;14.40;3.10;;;;;;;-128.00;-1.00;-1.00;19033;323;7505136;-35
2023/10/01 02:50:37;;;;;;;12.50;3.50;;;;;;;-128.00;-1.00;-1.00;19033;318;7504902;-31
2023/10/01 02:53:03;;;;;;;5.20;3.40;;;;;;;-128.00;-1.00;-1.00;19052;318;7505330;-32
2023/10/01 02:55:31;;;;;;;7.20;2.50;;;;;;;-128.00;-1.00;-1.00;18997;318;7504723;-31
2023/10/01 02:58:02;;;;;;;5.30;2.50;;;;;;;-128.00;-1.00;-1.00;19010;318;7505034;-31
2023/10/01 03:00:31;;;;;;;7.10;2.40;;;;;;;-128.00;-1.00;-1.00;19029;318;7506620;-33
2023/10/01 03:02:58;;;;;;;8.40;3.30;;;;;;;-128.00;-1.00;-1.00;19010;318;7506252;-31
2023/10/01 03:05:30;;;;;;;18.70;3.00;;;;;;;-128.00;-1.00;-1.00;18988;323;7506035;-31
2023/10/01 03:07:57;;;;;;;6.60;2.90;;;;;;;-128.00;-1.00;-1.00;19023;318;7504387;-31
2023/10/01 03:10:26;;;;;;;15.50;3.10;;;;;;;-128.00;-1.00;-1.00;19038;323;7505747;-31
2023/10/01 03:12:56;;;;;;;6.30;2.90;;;;;;;-128.00;-1.00;-1.00;19026;318;7504888;-32
2023/10/01 03:15:28;;;;;;;4.60;2.70;;;;;;;-128.00;-1.00;-1.00;19025;318;7504342;-31
2023/10/01 03:17:57;;;;;;;5.50;2.10;;;;;;;-128.00;-1.00;-1.00;18989;323;7504424;-31
2023/10/01 03:23:10;;;;;;;6.40;2.60;;;;;;;-128.00;-1.00;-1.00;19016;318;7505630;-35
2023/10/01 03:25:56;;;;;;;2.00;1.50;;;;;;;-128.00;-1.00;-1.00;19007;319;7505063;-35
2023/10/01 03:28:25;;;;;;;13.80;3.30;;;;;;;-128.00;-1.00;-1.00;19005;318;7505578;-36
2023/10/01 03:33:36;;;;;;;;;;;;;;;-128.00;-1.00;-1.00;19025;323;7504707;-30
2023/10/01 03:36:08;;;;;;;5.60;2.60;;;;;;;-128.00;-1.00;-1.00;18972;323;7505081;-35
2023/10/01 03:38:35;;;;;;;10.70;1.80;;;;;;;-128.00;-1.00;-1.00;19027;323;7505149;-35
2023/10/01 03:41:06;;;;;;;6.30;2.10;;;;;;;-128.00;-1.00;-1.00;19036;323;7505210;-30
2023/10/01 03:43:35;;;;;;;5.50;2.30;;;;;;;-128.00;-1.00;-1.00;19002;318;7504832;-30
2023/10/01 03:51:28;;;;;;;7.00;2.60;;;;;;;-128.00;-1.00;-1.00;19018;323;7505036;-35
2023/10/01 03:53:59;;;;;;;6.70;2.10;;;;;;;-128.00;-1.00;-1.00;19026;318;7504762;-31
2023/10/01 03:56:33;;;;;;;14.30;2.80;;;;;;;-128.00;-1.00;-1.00;18999;318;7504590;-31
2023/10/01 03:58:59;;;;;;;6.70;2.70;;;;;;;-128.00;-1.00;-1.00;19011;318;7505384;-31
2023/10/01 04:04:03;;;;;;;18.50;3.60;;;;;;;-128.00;-1.00;-1.00;19024;318;7506393;-35
2023/10/01 04:06:30;;;;;;;4.70;2.30;;;;;;;-128.00;-1.00;-1.00;18999;318;7506463;-32
2023/10/01 04:08:56;;;;;;;10.10;3.90;;;;;;;-128.00;-1.00;-1.00;19008;318;7505604;-34
2023/10/01 04:11:49;;;;;;;4.60;2.30;;;;;;;-128.00;-1.00;-1.00;19013;318;7504854;-31
2023/10/01 04:14:10;;;;;;;5.00;2.70;;;;;;;-128.00;-1.00;-1.00;19038;318;7506953;-35
2023/10/01 04:16:36;;;;;;;6.70;2.80;;;;;;;-128.00;-1.00;-1.00;19005;318;7506099;-34
2023/10/01 04:19:10;;;;;;;4.00;2.10;;;;;;;-128.00;-1.00;-1.00;19020;318;7505088;-34
2023/10/01 04:21:36;;;;;;;3.00;2.10;;;;;;;-128.00;-1.00;-1.00;19053;318;7505215;-30
2023/10/01 04:24:02;;;;;;;9.30;1.30;;;;;;;-128.00;-1.00;-1.00;18987;323;7506951;-35
2023/10/01 04:26:30;;;;;;;4.80;1.90;;;;;;;-128.00;-1.00;-1.00;19064;318;7504692;-35
2023/10/01 04:28:59;;;;;;;12.20;2.70;;;;;;;-128.00;-1.00;-1.00;19026;323;7504924;-34
2023/10/01 04:34:03;;;;;;;2.40;1.90;;;;;;;-128.00;-1.00;-1.00;19024;318;7505479;-31
2023/10/01 04:36:31;;;;;;;8.10;2.40;;;;;;;-128.00;-1.00;-1.00;19021;318;7506888;-34
2023/10/01 04:39:00;;;;;;;4.20;2.00;;;;;;;-128.00;-1.00;-1.00;19004;323;7506262;-35
2023/10/01 04:41:25;;;;;;;2.70;1.80;;;;;;;-128.00;-1.00;-1.00;19020;320;7505214;-30
2023/10/01 04:43:52;;;;;;;3.40;1.30;;;;;;;-128.00;-1.00;-1.00;18974;323;7505047;-35
2023/10/01 04:46:24;;;;;;;6.10;2.90;;;;;;;-128.00;-1.00;-1.00;19027;323;7506307;-35
2023/10/01 04:48:51;;;;;;;7.90;3.00;;;;;;;-128.00;-1.00;-1.00;19015;318;7506301;-35
2023/10/01 04:51:17;;;;;;;4.10;2.10;;;;;;;-128.00;-1.00;-1.00;19041;322;7505369;-35
2023/10/01 04:53:47;;;;;;;5.30;2.00;;;;;;;-128.00;-1.00;-1.00;19049;322;7506035;-34
2023/10/01 04:56:20;;;;;;;7.00;2.20;;;;;;;-128.00;-1.00;-1.00;19018;319;7505985;-35
2023/10/01 04:58:51;;;;;;;3.30;1.50;;;;;;;-128.00;-1.00;-1.00;19031;319;7505111;-31
2023/10/01 05:01:18;;;;;;;2.40;1.60;;;;;;;-128.00;-1.00;-1.00;19033;318;7506057;-35
2023/10/01 05:03:48;;;;;;;7.00;2.70;;;;;;;-128.00;-1.00;-1.00;18980;323;7504880;-31
2023/10/01 05:06:18;;;;;;;8.70;2.00;;;;;;;-128.00;-1.00;-1.00;19036;323;7504730;-34
2023/10/01 05:08:47;;;;;;;8.20;2.10;;;;;;;-128.00;-1.00;-1.00;19006;323;7504416;-31
2023/10/01 05:11:13;;;;;;;3.10;1.40;;;;;;;-128.00;-1.00;-1.00;19007;318;7505041;-32
2023/10/01 05:13:40;;;;;;;15.20;2.20;;;;;;;-128.00;-1.00;-1.00;19039;319;7505608;-34
2023/10/01 05:16:12;;;;;;;6.10;1.40;;;;;;;-128.00;-1.00;-1.00;19030;319;7506140;-41
2023/10/01 05:18:38;;;;;;;4.50;2.80;;;;;;;-128.00;-1.00;-1.00;19014;318;7505601;-30
2023/10/01 05:21:11;;;;;;;7.60;1.40;;;;;;;-128.00;-1.00;-1.00;19003;323;7506777;-30
2023/10/01 05:23:39;;;;;;;2.90;1.80;;;;;;;-128.00;-1.00;-1.00;19024;318;7504875;-34
2023/10/01 05:26:08;;;;;;;6.40;1.80;;;;;;;-128.00;-1.00;-1.00;19025;323;7504362;-31
2023/10/01 05:28:36;;;;;;;2.60;1.30;;;;;;;-128.00;-1.00;-1.00;19046;318;7504521;-34
2023/10/01 05:31:12;;;;;;;6.70;2.00;;;;;;;-128.00;-1.00;-1.00;19035;322;7504566;-35
2023/10/01 05:33:39;;;;;;;8.20;2.20;;;;;;;-128.00;-1.00;-1.00;19013;318;7504363;-36
2023/10/01 05:36:05;;;;;;;6.30;1.80;;;;;;;-128.00;-1.00;-1.00;19058;318;7506861;-35
2023/10/01 05:38:34;;;;;;;7.90;2.60;;;;;;;-128.00;-1.00;-1.00;19003;319;7506119;-35
2023/10/01 05:41:03;;;;;;;11.60;2.80;;;;;;;-128.00;-1.00;-1.00;19004;323;7504993;-30
2023/10/01 05:43:37;;;;;;;5.60;1.80;;;;;;;-128.00;-1.00;-1.00;19044;318;7504733;-31
2023/10/01 05:46:08;;;;;;;4.80;2.40;;;;;;;-128.00;-1.00;-1.00;18990;323;7504534;-34
2023/10/01 05:48:39;;;;;;;14.00;2.40;;;;;;;-128.00;-1.00;-1.00;18990;319;7505031;-36
2023/10/01 05:51:12;;;;;;;2.20;1.50;;;;;;;-128.00;-1.00;-1.00;19052;319;7506521;-29
2023/10/01 05:53:38;;;;;;;4.70;1.60;;;;;;;-128.00;-1.00;-1.00;19010;323;7506291;-36
2023/10/01 05:56:06;;;;;;;10.50;3.50;;;;;;;-128.00;-1.00;-1.00;19012;323;7504772;-31
2023/10/01 05:58:33;;;;;;;2.70;1.30;;;;;;;-128.00;-1.00;-1.00;19027;319;7505089;-30
2023/10/01 06:01:05;;;;;;;7.70;2.70;;;;;;;-128.00;-1.00;-1.00;19017;318;7504607;-35
2023/10/01 06:03:31;;;;;;;;;;;;;;;-128.00;-1.00;-1.00;19072;318;7505179;-35
2023/10/01 06:06:08;;;;;;;3.50;1.90;;;;;;;-128.00;-1.00;-1.00;19009;319;7504703;-35
2023/10/01 06:08:44;;;;;;;8.10;2.40;;;;;;;-128.00;-1.00;-1.00;19054;320;7505221;-31
2023/10/01 06:11:13;;;;;;;5.80;2.20;;;;;;;-128.00;-1.00;-1.00;19048;318;7506390;-36
2023/10/01 06:16:24;;;;;;;7.20;1.50;;;;;;;-128.00;-1.00;-1.00;19028;323;7506688;-31
2023/10/01 06:18:58;;;;;;;9.70;1.90;;;;;;;-128.00;-1.00;-1.00;18985;321;7505242;-31
2023/10/01 06:21:25;;;;;;;4.40;1.70;;;;;;;-128.00;-1.00;-1.00;19001;318;7504699;-35
2023/10/01 06:23:52;;;;;;;15.50;2.50;;;;;;;-128.00;-1.00;-1.00;19016;320;7504690;-31
2023/10/01 06:26:19;;;;;;;5.70;2.00;;;;;;;-128.00;-1.00;-1.00;19028;318;7504720;-34
2023/10/01 06:28:46;;;;;;;4.50;2.50;;;;;;;-128.00;-1.00;-1.00;19038;319;7504478;-34
2023/10/01 06:31:12;;;;;;;5.10;2.20;;;;;;;-128.00;-1.00;-1.00;19026;318;7504366;-30
2023/10/01 06:33:38;;;;;;;7.00;2.40;;;;;;;-128.00;-1.00;-1.00;19007;318;7504661;-34
2023/10/01 06:36:15;;;;;;;7.70;1.80;;;;;;;-128.00;-1.00;-1.00;19028;323;7506700;-35
2023/10/01 06:38:44;;;;;;;2.20;1.20;;;;;;;-128.00;-1.00;-1.00;19029;323;7505009;-35
2023/10/01 06:41:13;;;;;;;4.50;2.10;;;;;;;-128.00;-1.00;-1.00;18985;323;7505072;-34
2023/10/01 06:43:48;;;;;;;9.00;2.80;;;;;;;-128.00;-1.00;-1.00;19036;323;7504443;-34
2023/10/01 06:46:16;;;;;;;3.90;1.80;;;;;;;-128.00;-1.00;-1.00;18991;323;7505381;-31
2023/10/01 06:48:42;;;;;;;5.40;1.30;;;;;;;-128.00;-1.00;-1.00;19012;322;7505465;-34
2023/10/01 06:51:08;;;;;;;5.10;2.00;;;;;;;-128.00;-1.00;-1.00;19026;323;7505593;-35
2023/10/01 06:53:45;;;;;;;5.90;2.40;;;;;;;-128.00;-1.00;-1.00;19021;325;7506153;-30
2023/10/01 06:56:17;;;;;;;7.30;2.40;;;;;;;-128.00;-1.00;-1.00;19022;323;7504458;-34
2023/10/01 06:59:03;;;;;;;3.60;1.90;;;;;;;-128.00;-1.00;-1.00;18998;323;7504461;-30
2023/10/01 07:01:42;;;;;;;8.90;2.00;;;;;;;-128.00;-1.00;-1.00;19041;319;7505192;-34
2023/10/01 07:04:09;;;;;;;3.90;2.40;;;;;;;-128.00;-1.00;-1.00;19032;318;7505333;-29
2023/10/01 07:06:36;;;;;;;14.60;1.70;;;;;;;-128.00;-1.00;-1.00;19025;323;7506079;-34
2023/10/01 07:09:03;;;;;;;9.30;3.20;;;;;;;-128.00;-1.00;-1.00;19023;323;7505079;-33
2023/10/01 07:11:29;;;;;;;3.00;1.20;;;;;;;-128.00;-1.00;-1.00;19023;323;7504583;-37
2023/10/01 07:13:56;;;;;;;11.30;2.00;;;;;;;-128.00;-1.00;-1.00;19028;323;7504585;-35
2023/10/01 07:18:59;;;;;;;12.00;2.00;;;;;;;-128.00;-1.00;-1.00;19026;318;7505655;-35
2023/10/01 07:21:26;;;;;;;6.20;2.30;;;;;;;-128.00;-1.00;-1.00;19043;318;7506976;-35
2023/10/01 07:23:53;;;;;;;4.90;1.20;;;;;;;-128.00;-1.00;-1.00;19011;323;7504447;-31
2023/10/01 07:26:19;;;;;;;8.80;1.90;;;;;;;-128.00;-1.00;-1.00;19035;323;7505064;-37
2023/10/01 07:28:55;;;;;;;6.40;1.90;;;;;;;-128.00;-1.00;-1.00;19024;323;7505356;-35
2023/10/01 07:31:24;;;;;;;4.90;1.90;;;;;;;-128.00;-1.00;-1.00;19050;318;7504877;-35
2023/10/01 07:33:53;;;;;;;15.50;1.80;;;;;;;-128.00;-1.00;-1.00;19018;318;7505132;-31
2023/10/01 07:36:20;;;;;;;10.00;0.90;;;;;;;-128.00;-1.00;-1.00;19015;323;7504855;-34
2023/10/01 07:38:52;;;;;;;2.40;1.40;;;;;;;-128.00;-1.00;-1.00;19017;323;7504770;-35
2023/10/01 07:41:20;;;;;;;2.90;1.60;;;;;;;-128.00;-1.00;-1.00;18998;320;7504950;-31
2023/10/01 07:43:46;;;;;;;12.40;1.20;;;;;;;-128.00;-1.00;-1.00;19004;323;7504805;-34
2023/10/01 07:46:14;;;;;;;4.30;1.60;;;;;;;-128.00;-1.00;-1.00;19008;323;7505436;-31
2023/10/01 07:48:46;;;;;;;3.90;1.30;;;;;;;-128.00;-1.00;-1.00;19053;323;7505964;-30
2023/10/01 07:53:52;;;;;;;9.10;1.60;;;;;;;-128.00;-1.00;-1.00;19046;318;7506403;-31
2023/10/01 07:56:21;;;;;;;3.20;0.80;;;;;;;-128.00;-1.00;-1.00;18988;318;7504780;-31
2023/10/01 07:58:57;;;;;;;8.70;1.30;;;;;;;-128.00;-1.00;-1.00;19012;323;7505302;-35
2023/10/01 08:04:19;;;;;;;4.80;1.60;;;;;;;-128.00;-1.00;-1.00;19012;318;7506547;-30
2023/10/01 08:06:48;;;;;;;1.20;0.70;;;;;;;-128.00;-1.00;-1.00;19024;318;7505134;-31
2023/10/01 08:09:15;;;;;;;1.90;1.00;;;;;;;-128.00;-1.00;-1.00;19012;318;7504976;-31
2023/10/01 08:14:10;;;;;;;2.90;1.10;;;;;;;-128.00;-1.00;-1.00;19003;318;7505271;-32
2023/10/01 08:16:47;;;;;;;5.40;1.90;;;;;;;-128.00;-1.00;-1.00;19437;318;7504707;-35
2023/10/01 08:19:22;;;;;;;15.50;1.80;;;;;;;-128.00;-1.00;-1.00;19042;318;7505186;-35
2023/10/01 08:21:53;;;;;;;5.70;1.30;;;;;;;-128.00;-1.00;-1.00;19012;323;7504989;-35
2023/10/01 08:24:19;;;;;;;11.20;1.60;;;;;;;-128.00;-1.00;-1.00;19029;323;7504483;-31
2023/10/01 08:29:59;;;;;;;1.50;1.10;;;;;;;-128.00;-1.00;-1.00;18996;319;7504796;-36
2023/10/01 08:32:14;;;;;;;6.30;2.30;;;;;;;-128.00;-1.00;-1.00;19037;322;7505292;-32
2023/10/01 08:37:09;;;;;;;4.10;2.20;;;;;;;-128.00;-1.00;-1.00;19001;323;7505164;-35
2023/10/01 08:39:35;;;;;;;7.90;1.10;;;;;;;-128.00;-1.00;-1.00;19014;318;7504722;-32
2023/10/01 08:42:08;;;;;;;8.70;2.10;;;;;;;-128.00;-1.00;-1.00;19019;319;7506203;-36
2023/10/01 08:44:46;;;;;;;12.60;1.70;;;;;;;-128.00;-1.00;-1.00;19019;319;7504719;-31
2023/10/01 08:47:34;;;;;;;4.50;1.50;;;;;;;-128.00;-1.00;-1.00;18964;323;7504702;-32
2023/10/01 08:52:52;;;;;;;5.00;2.60;;;;;;;-128.00;-1.00;-1.00;19038;318;7504632;-35
2023/10/01 08:55:21;;;;;;;4.30;1.10;;;;;;;-128.00;-1.00;-1.00;19019;323;7504872;-35
2023/10/01 08:57:46;;;;;;;5.70;1.90;;;;;;;-128.00;-1.00;-1.00;19007;322;7506371;-31
2023/10/01 09:00:20;;;;;;;9.10;1.30;;;;;;;-128.00;-1.00;-1.00;19025;320;7504862;-32
2023/10/01 09:02:53;;;;;;;20.20;1.10;;;;;;;-128.00;-1.00;-1.00;19023;323;7507065;-36
2023/10/01 09:05:25;;;;;;;7.40;1.70;;;;;;;-128.00;-1.00;-1.00;19014;323;7505000;-32
2023/10/01 09:08:14;;;;;;;7.50;1.80;;;;;;;-128.00;-1.00;-1.00;19037;318;7505281;-31
2023/10/01 09:10:48;;;;;;;5.30;1.30;;;;;;;-128.00;-1.00;-1.00;19025;323;7504825;-35
2023/10/01 09:13:20;;;;;;;4.00;1.00;;;;;;;-128.00;-1.00;-1.00;19026;323;7505254;-36
2023/10/01 09:15:47;;;;;;;3.30;1.10;;;;;;;-128.00;-1.00;-1.00;19034;323;7506403;-36
2023/10/01 09:18:20;;;;;;;0.90;0.40;;;;;;;-128.00;-1.00;-1.00;19042;318;7505358;-35
2023/10/01 09:23:49;;;;;;;4.40;1.70;;;;;;;-128.00;-1.00;-1.00;19018;318;7504996;-35
2023/10/01 09:26:09;;;;;;;3.60;1.70;;;;;;;-128.00;-1.00;-1.00;19014;320;7505220;-35
2023/10/01 09:28:37;;;;;;;4.10;1.20;;;;;;;-128.00;-1.00;-1.00;19452;319;7504448;-31
2023/10/01 09:31:21;;;;;;;2.50;1.60;;;;;;;-128.00;-1.00;-1.00;19046;319;7506477;-38
2023/10/01 09:33:48;;;;;;;17.70;1.80;;;;;;;-128.00;-1.00;-1.00;19026;323;7505932;-35
2023/10/01 09:36:33;;;;;;;3.60;1.20;;;;;;;-128.00;-1.00;-1.00;19032;323;7504662;-32
2023/10/01 09:39:03;;;;;;;4.80;1.20;;;;;;;-128.00;-1.00;-1.00;19021;318;7504534;-35
2023/10/01 09:41:34;;;;;;;3.70;0.80;;;;;;;-128.00;-1.00;-1.00;19001;318;7505241;-35
2023/10/01 09:44:02;;;;;;;3.60;0.90;;;;;;;-128.00;-1.00;-1.00;19000;318;7505039;-32
2023/10/01 09:46:33;;;;;;;5.70;1.10;;;;;;;-128.00;-1.00;-1.00;19029;319;7505935;-32
2023/10/01 09:49:01;;;;;;;8.20;0.70;;;;;;;-128.00;-1.00;-1.00;19018;323;7504868;-31
2023/10/01 09:51:31;;;;;;;4.30;0.90;;;;;;;-128.00;-1.00;-1.00;19023;319;7506262;-32
2023/10/01 09:54:01;;;;;;;1.80;0.90;;;;;;;-128.00;-1.00;-1.00;19032;318;7504941;-32
2023/10/01 09:56:46;;;;;;;1.90;0.70;;;;;;;-128.00;-1.00;-1.00;19017;320;7504497;-36
2023/10/01 09:59:13;;;;;;;7.40;0.60;;;;;;;-128.00;-1.00;-1.00;19014;318;7504557;-32
2023/10/01 10:01:39;;;;;;;4.50;1.30;;;;;;;-128.00;-1.00;-1.00;18957;323;7504665;-36
2023/10/01 10:04:07;;;;;;;8.00;1.30;;;;;;;-128.00;-1.00;-1.00;19002;318;7505931;-36
2023/10/01 10:06:34;;;;;;;1.90;0.90;;;;;;;-128.00;-1.00;-1.00;19000;319;7505135;-32
2023/10/01 10:09:04;;;;;;;3.70;1.00;;;;;;;-128.00;-1.00;-1.00;19024;319;7504551;-35
2023/10/01 10:11:37;;;;;;;9.80;1.30;;;;;;;-128.00;-1.00;-1.00;18990;320;7504589;-35
2023/10/01 10:14:44;;;;;;;9.70;1.60;;;;;;;-128.00;-1.00;-1.00;19030;319;7505030;-35
2023/10/01 10:17:18;;;;;;;3.60;1.10;;;;;;;-128.00;-1.00;-1.00;19032;323;7504654;-30
2023/10/01 10:23:13;;;;;;;4.30;1.30;;;;;;;-128.00;-1.00;-1.00;18983;319;7505131;-35
2023/10/01 10:25:45;;;;;;;4.10;1.00;;;;;;;-128.00;-1.00;-1.00;19018;319;7505301;-36
2023/10/01 10:28:24;;;;;;;9.60;1.50;;;;;;;-128.00;-1.00;-1.00;19052;318;7507218;-31
2023/10/01 10:31:14;;;;;;;1.50;0.70;;;;;;;-128.00;-1.00;-1.00;19030;323;7505452;-35
2023/10/01 10:33:48;;;;;;;1.60;0.70;;;;;;;-128.00;-1.00;-1.00;19019;318;7505035;-31
2023/10/01 10:36:34;;;;;;;4.50;0.70;;;;;;;-128.00;-1.00;-1.00;19030;323;7505803;-36
2023/10/01 10:39:00;;;;;;;6.60;1.20;;;;;;;-128.00;-1.00;-1.00;18990;323;7504562;-32
2023/10/01 10:41:31;;;;;;;3.80;0.60;;;;;;;-128.00;-1.00;-1.00;18990;322;7504989;-36
2023/10/01 10:44:08;;;;;;;16.90;0.80;;;;;;;-128.00;-1.00;-1.00;19066;323;7505335;-32
2023/10/01 10:47:02;;;;;;;8.30;0.80;;;;;;;-128.00;-1.00;-1.00;19007;318;7505012;-35
2023/10/01 10:49:52;;;;;;;7.20;1.00;;;;;;;-128.00;-1.00;-1.00;19034;319;7506546;-31
2023/10/01 10:52:33;;;;;;;4.00;0.80;;;;;;;-128.00;-1.00;-1.00;19042;323;7504963;-31
2023/10/01 10:55:15;;;;;;;3.10;0.70;;;;;;;-128.00;-1.00;-1.00;18969;319;7504567;-35
2023/10/01 10:57:48;;;;;;;6.60;1.00;;;;;;;-128.00;-1.00;-1.00;19022;318;7506332;-36
2023/10/01 11:02:59;;;;;;;6.90;1.10;;;;;;;-128.00;-1.00;-1.00;19028;323;7505935;-32
2023/10/01 11:05:30;;;;;;;3.60;0.70;;;;;;;-128.00;-1.00;-1.00;19043;323;7504377;-32
2023/10/01 11:07:58;;;;;;;4.80;0.80;;;;;;;-128.00;-1.00;-1.00;19032;318;7504995;-36
2023/10/01 11:10:37;;;;;;;3.40;0.60;;;;;;;-128.00;-1.00;-1.00;19024;318;7505008;-33
2023/10/01 11:13:03;;;;;;;5.60;0.80;;;;;;;-128.00;-1.00;-1.00;19031;318;7504575;-32
2023/10/01 11:15:35;;;;;;;3.40;0.80;;;;;;;-128.00;-1.00;-1.00;19015;320;7504797;-32
2023/10/01 11:18:01;;;;;;;2.90;0.50;;;;;;;-128.00;-1.00;-1.00;19011;325;7505266;-35
2023/10/01 11:20:33;;;;;;;2.10;1.00;;;;;;;-128.00;-1.00;-1.00;19008;323;7504709;-35
2023/10/01 11:22:59;;;;;;;9.00;0.90;;;;;;;-128.00;-1.00;-1.00;19025;319;7505355;-31
2023/10/01 11:25:25;;;;;;;2.80;0.80;;;;;;;-128.00;-1.00;-1.00;19022;318;7504661;-35
2023/10/01 11:28:04;;;;;;;2.70;0.90;;;;;;;-128.00;-1.00;-1.00;19040;319;7504395;-35
2023/10/01 11:30:42;;;;;;;0.80;0.40;;;;;;;-128.00;-1.00;-1.00;18982;323;7504831;-35
2023/10/01 11:33:13;;;;;;;16.80;1.10;;;;;;;-128.00;-1.00;-1.00;19038;318;7504623;-35
2023/10/01 11:35:59;;;;;;;7.10;0.90;;;;;;;-128.00;-1.00;-1.00;19044;318;7504395;-35
2023/10/01 11:38:26;;;;;;;2.00;0.80;;;;;;;-128.00;-1.00;-1.00;19021;318;7504684;-35
2023/10/01 11:41:06;;;;;;;4.30;0.80;;;;;;;-128.00;-1.00;-1.00;18996;323;7505173;-35
2023/10/01 11:43:39;;;;;;;5.20;1.20;;;;;;;-128.00;-1.00;-1.00;19002;320;7505464;-35
2023/10/01 11:46:23;;;;;;;1.10;0.40;;;;;;;-128.00;-1.00;-1.00;19023;318;7505565;-30
2023/10/01 11:48:57;;;;;;;4.10;1.10;;;;;;;-128.00;-1.00;-1.00;19013;318;7504714;-36
2023/10/01 11:51:30;;;;;;;5.80;0.40;;;;;;;-128.00;-1.00;-1.00;19011;318;7504571;-31
2023/10/01 11:54:08;;;;;;;5.60;1.40;;;;;;;-128.00;-1.00;-1.00;19023;318;7505261;-31
2023/10/01 11:56:35;;;;;;;4.90;1.20;;;;;;;-128.00;-1.00;-1.00;19009;318;7504788;-35
2023/10/01 11:59:01;;;;;;;7.10;2.00;;;;;;;-128.00;-1.00;-1.00;19008;318;7504809;-31
2023/10/01 12:01:38;;;;;;;5.50;1.10;;;;;;;-128.00;-1.00;-1.00;18998;318;7504464;-35
2023/10/01 12:04:06;;;;;;;3.50;0.40;;;;;;;-128.00;-1.00;-1.00;19001;319;7504727;-31
2023/10/01 12:06:34;;;;;;;4.60;1.20;;;;;;;-128.00;-1.00;-1.00;19008;325;7506425;-31
2023/10/01 12:09:03;;;;;;;2.30;0.70;;;;;;;-128.00;-1.00;-1.00;19009;322;7505180;-35
2023/10/01 12:11:29;;;;;;;9.90;1.00;;;;;;;-128.00;-1.00;-1.00;19025;319;7505361;-35
2023/10/01 12:16:33;;;;;;;5.40;0.80;;;;;;;-128.00;-1.00;-1.00;19011;318;7506473;-36
2023/10/01 12:19:22;;;;;;;5.10;1.00;;;;;;;-128.00;-1.00;-1.00;19013;323;7505062;-30
2023/10/01 12:21:48;;;;;;;3.60;0.90;;;;;;;-128.00;-1.00;-1.00;19007;323;7504934;-35
2023/10/01 12:24:18;;;;;;;6.10;0.60;;;;;;;-128.00;-1.00;-1.00;19002;320;7505075;-32
2023/10/01 12:26:46;;;;;;;4.70;1.40;;;;;;;-128.00;-1.00;-1.00;19013;323;7505182;-31
2023/10/01 12:29:12;;;;;;;3.80;0.80;;;;;;;-128.00;-1.00;-1.00;19000;320;7504837;-31
2023/10/01 12:31:45;;;;;;;2.40;0.80;;;;;;;-128.00;-1.00;-1.00;19015;319;7504880;-32
2023/10/01 13:15:30;;;;;;;4.20;1.00;;;;;;;18.82;51.90;100132.05;104279;316;587978;-35
2023/10/01 13:18:00;;;;;;;4.20;1.40;;;;;;;-39.84;30.49;55227.56;102426;318;1002739;-30
2023/10/01 13:20:28;;;;;;;1.30;0.70;;;;;;;-128.00;-1.00;-1.00;100759;316;1003090;-37
2023/10/01 13:25:34;;;;;;;1.60;0.60;;;;;;;-128.00;-1.00;-1.00;101016;316;1003305;-29
2023/10/01 13:28:06;;;;;;;6.20;1.00;;;;;;;-128.00;-1.00;-1.00;100959;316;1004390;-37
2023/10/01 13:31:03;;;;;;;13.10;1.40;;;;;;;-128.00;-1.00;-1.00;46149;316;7504413;-31
2023/10/01 13:33:23;;;;;;;4.10;0.70;;;;;;;-128.00;-1.00;-1.00;19050;321;7505045;-35
2023/10/01 13:38:52;;;;;;;5.10;0.70;;;;;;;-128.00;-1.00;-1.00;19075;321;7504935;-35
2023/10/01 14:10:16;;;;;;;3.90;0.60;;;;;;;-128.00;-1.00;-1.00;19069;316;7505279;-32
2023/10/01 14:12:42;;;;;;;4.10;1.00;;;;;;;-128.00;-1.00;-1.00;19015;318;7504986;-36
2023/10/01 14:17:53;;;;;;;3.50;0.80;;;;;;;-128.00;-1.00;-1.00;19066;316;7506198;-31
2023/10/01 14:23:07;;;;;;;17.40;1.20;;;;;;;-128.00;-1.00;-1.00;19015;322;7504613;-35
2023/10/01 14:25:52;;;;;;;5.00;0.80;;;;;;;-128.00;-1.00;-1.00;19072;322;7505429;-36
2023/10/01 14:28:22;;;;;;;5.30;1.10;;;;;;;-128.00;-1.00;-1.00;19065;317;7504862;-31
2023/10/01 14:30:50;;;;;;;1.10;0.60;;;;;;;-128.00;-1.00;-1.00;19051;317;7505158;-31
2023/10/01 14:33:24;;;;;;;1.30;0.60;;;;;;;-128.00;-1.00;-1.00;19083;322;7504664;-31
2023/10/01 14:35:51;;;;;;;1.90;0.70;;;;;;;-128.00;-1.00;-1.00;19067;322;7504725;-31
2023/10/01 14:38:21;;;;;;;4.60;0.70;;;;;;;-128.00;-1.00;-1.00;19005;317;7504639;-35
2023/10/01 14:40:56;;;;;;;2.90;0.70;;;;;;;-128.00;-1.00;-1.00;19054;316;7504934;-31
2023/10/01 14:43:24;;;;;;;4.30;1.10;;;;;;;-128.00;-1.00;-1.00;19062;316;7505493;-35